Time;durP1;ratioP1;P1;durP2;ratioP2;P2;SDS_P1;SDS_P2;PMS_P1;PMS_P2;Temp;Humidity;BMP_temperature;BMP_pressure;BME280_temperature;BME280_humidity;BME280_pressure;Samples;Min_cycle;Max_cycle;Signal;HPM_P1;HPM_P2
2022/08/02 00:00:05;;;;;;;;;;;;;;;17.15;50.59766;101971.9;;;;-81
2022/08/02 00:03:22;;;;;;;2.8;0.9;;;;;;;;;;;;;-80
2022/08/02 00:04:51;;;;;;;;;;;;;;;17.11;50.78516;101959.6;;;;-81
2022/08/02 00:09:57;;;;;;;;;;;;;;;17.06;50.88184;101940.5;;;;-81
2022/08/02 00:14:59;;;;;;;;;;;;;;;17.02;50.84375;101935.9;;;;-81
2022/08/02 00:19:53;;;;;;;;;;;;;;;16.98;51.29102;101926.6;;;;-82
2022/08/02 00:29:25;;;;;;;;;;;;;;;16.9;51.41895;101916.3;;;;-79
2022/08/02 00:33:22;;;;;;;2.7;1.1;;;;;;;;;;;;;-81
2022/08/02 00:34:30;;;;;;;;;;;;;;;16.87;51.53906;101917.6;;;;-81
2022/08/02 00:39:24;;;;;;;;;;;;;;;16.82;51.47656;101918.5;;;;-80
2022/08/02 00:44:14;;;;;;;;;;;;;;;16.79;51.9707;101923.9;;;;-81
2022/08/02 00:49:18;;;;;;;;;;;;;;;16.75;53.23438;101921.8;;;;-81
2022/08/02 00:54:14;;;;;;;;;;;;;;;16.76;52.69238;101919.6;;;;-79
2022/08/02 00:59:12;;;;;;;;;;;;;;;16.8;52.74219;101919.2;;;;-80
2022/08/02 01:03:28;;;;;;;2.2;0.8;;;;;;;;;;;;;-81
2022/08/02 01:04:21;;;;;;;;;;;;;;;16.8;52.65234;101917.6;;;;-79
2022/08/02 01:09:26;;;;;;;;;;;;;;;16.77;53.04492;101912.3;;;;-81
2022/08/02 01:14:28;;;;;;;;;;;;;;;16.79;53.78223;101906.6;;;;-79
2022/08/02 01:19:38;;;;;;;;;;;;;;;16.78;53.46387;101892;;;;-79
2022/08/02 01:24:26;;;;;;;;;;;;;;;16.8;53.87305;101894.9;;;;-80
2022/08/02 01:33:28;;;;;;;3.2;1.3;;;;;;;;;;;;;-80
2022/08/02 01:34:14;;;;;;;;;;;;;;;16.79;54.22266;101897.8;;;;-81
2022/08/02 01:39:23;;;;;;;;;;;;;;;16.81;54.10059;101895.2;;;;-80
2022/08/02 01:44:17;;;;;;;;;;;;;;;16.8;54.25879;101888.2;;;;-78
2022/08/02 01:49:18;;;;;;;;;;;;;;;16.8;54.41699;101883.1;;;;-80
2022/08/02 01:54:14;;;;;;;;;;;;;;;16.81;54.36035;101877.1;;;;-82
2022/08/02 01:59:23;;;;;;;;;;;;;;;16.78;54.75293;101869.4;;;;-80
2022/08/02 02:03:39;;;;;;;4.4;1.3;;;;;;;;;;;;;-79
2022/08/02 02:09:30;;;;;;;;;;;;;;;16.72;55.40234;101865.3;;;;-80
2022/08/02 02:14:35;;;;;;;;;;;;;;;16.7;55.4668;101861.4;;;;-81
2022/08/02 02:19:35;;;;;;;;;;;;;;;16.68;55.41992;101855.3;;;;-80
2022/08/02 02:24:12;;;;;;;;;;;;;;;16.67;55.33887;101859.2;;;;-80
2022/08/02 02:29:37;;;;;;;;;;;;;;;;;;;;;
2022/08/02 02:30:26;;;;;;;;;;;;;;;16.86;55.21582;101853.2;;;;-81
2022/08/02 02:33:44;;;;;;;4.6;1.2;;;;;;;;;;;;;-82
2022/08/02 02:35:17;;;;;;;;;;;;;;;16.59;55.85938;101859.7;;;;-81
2022/08/02 02:36:29;;;;;;;;;;;;;;;16.84;55.25781;101860.5;;;;-78
2022/08/02 02:40:26;;;;;;;;;;;;;;;16.56;55.51758;101858.9;;;;-79
2022/08/02 02:49:27;;;;;;;;;;;;;;;16.51;55.56836;101849.7;;;;-81
2022/08/02 02:58:18;;;;;;;;;;;;;;;16.43;56.24707;101832.3;;;;-80
2022/08/02 03:03:19;;;;;;;;;;;;;;;16.39;56.98633;101844;;;;-81
2022/08/02 03:03:31;;;;;;;4.4;1.3;;;;;;;;;;;;;-81
2022/08/02 03:08:15;;;;;;;;;;;;;;;16.35;56.71094;101837.7;;;;-80
2022/08/02 03:13:16;;;;;;;;;;;;;;;16.3;57.30176;101829.4;;;;-81
2022/08/02 03:18:14;;;;;;;;;;;;;;;16.25;57.5459;101827;;;;-80
2022/08/02 03:23:15;;;;;;;;;;;;;;;16.22;57.49414;101830.7;;;;-81
2022/08/02 03:28:16;;;;;;;;;;;;;;;16.18;57.57031;101819.1;;;;-81
2022/08/02 03:33:23;;;;;;;;;;;;;;;16.14;57.31543;101817.5;;;;-81
2022/08/02 03:33:46;;;;;;;2.8;1.2;;;;;;;;;;;;;-81
2022/08/02 03:38:19;;;;;;;;;;;;;;;16.13;57.29297;101812.9;;;;-79
2022/08/02 03:43:15;;;;;;;;;;;;;;;16.17;57.30762;101824.5;;;;-80
2022/08/02 03:48:15;;;;;;;;;;;;;;;16.18;57.36719;101815.3;;;;-80
2022/08/02 03:53:21;;;;;;;;;;;;;;;16.2;57.32324;101813.4;;;;-80
2022/08/02 03:58:18;;;;;;;;;;;;;;;16.2;57.32422;101805.1;;;;-81
2022/08/02 04:03:13;;;;;;;;;;;;;;;16.18;57.24219;101806.3;;;;-80
2022/08/02 04:03:32;;;;;;;6.8;1.4;;;;;;;;;;;;;-80
2022/08/02 04:08:22;;;;;;;;;;;;;;;16.13;57.5293;101799.3;;;;-81
2022/08/02 04:13:28;;;;;;;;;;;;;;;16.11;57.33496;101784.3;;;;-79
2022/08/02 04:18:23;;;;;;;;;;;;;;;16.07;57.55469;101782.3;;;;-80
2022/08/02 04:23:21;;;;;;;;;;;;;;;16.01;57.84082;101773.8;;;;-81
2022/08/02 04:28:27;;;;;;;;;;;;;;;16.02;57.68262;101780.8;;;;-79
2022/08/02 04:33:12;;;;;;;;;;;;;;;15.99;57.97266;101776.3;;;;-81
2022/08/02 04:33:34;;;;;;;5.2;1.4;;;;;;;;;;;;;-82
2022/08/02 04:38:25;;;;;;;;;;;;;;;15.98;57.75684;101774.4;;;;-81
2022/08/02 04:43:16;;;;;;;;;;;;;;;15.98;57.72461;101780;;;;-79
2022/08/02 04:48:35;;;;;;;;;;;;;;;15.97;57.57617;101780.2;;;;-80
2022/08/02 04:53:31;;;;;;;;;;;;;;;15.98;57.30664;101784.7;;;;-81
2022/08/02 04:58:24;;;;;;;;;;;;;;;;;;;;;
2022/08/02 05:03:26;;;;;;;;;;;;;;;16.02;57.55859;101781;;;;-80
2022/08/02 05:03:42;;;;;;;3.3;1.3;;;;;;;;;;;;;-80
2022/08/02 05:08:25;;;;;;;;;;;;;;;16.03;57.42578;101787.3;;;;-80
2022/08/02 05:13:29;;;;;;;;;;;;;;;16.07;57.28516;101797.9;;;;-80
2022/08/02 05:25:33;;;;;;;;;;;;;;;;;;;;;
2022/08/02 05:27:24;;;;;;;;;;;;;;;16.59;56.44727;101774.8;;;;-82
2022/08/02 05:33:56;;;;;;;4.3;1.4;;;;;;;;;;;;;-81
2022/08/02 05:34:38;;;;;;;;;;;;;;;16.75;56.47949;101786.6;;;;-82
2022/08/02 05:42:55;;;;;;;;;;;;;;;16.73;56.73633;101779.1;;;;-81
2022/08/02 05:48:03;;;;;;;;;;;;;;;17.19;56.04883;101786.4;;;;-81
2022/08/02 05:53:09;;;;;;;;;;;;;;;17.81;55.11816;101793.7;;;;-80
2022/08/02 06:04:33;;;;;;;;;;;;;;;19.61;51.70898;101761.3;;;;-80
2022/08/02 06:09:02;;;;;;;;;;;;;;;19.72;51.50684;101752.6;;;;-81
2022/08/02 06:13:24;;;;;;;;;;;;;;;20.12;51.00488;101761.6;;;;-79
2022/08/02 06:17:43;;;;;;;;;;;;;;;20.32;50.73145;101760.5;;;;-83
2022/08/02 06:23:04;;;;;;;;;;;;;;;20.8;49.91797;101751;;;;-81
2022/08/02 06:27:57;;;;;;;;;;;;;;;21.19;49.40039;101732.4;;;;-81
2022/08/02 06:38:01;;;;;;;;;;;;;;;21.89;48.12598;101730.6;;;;-80
2022/08/02 06:56:29;;;;;;;;;;;;;;;23.17;46.64258;101730.5;;;;-82
2022/08/02 07:00:16;;;;;;;;;;;;;;;23.41;46.06836;101731.4;;;;-80
2022/08/02 07:02:48;;;;;;;;;;;;;;;23.15;46.58398;101723.1;;;;-80
2022/08/02 07:03:56;;;;;;;3.9;1.8;;;;;;;;;;;;;-81
2022/08/02 07:08:14;;;;;;;;;;;;;;;23.33;46.25684;101710.3;;;;-83
2022/08/02 07:13:06;;;;;;;;;;;;;;;23.69;46.0166;101717.1;;;;-81
2022/08/02 07:45:51;;;;;;;;;;;;;;;25.25;44.13184;101686.1;;;;-81
2022/08/02 08:07:25;;;;;;;;;;;;;;;;;;;;;
2022/08/02 10:24:09;;;;;;;;;;;;;;;30.22;39.93945;101679.6;;;;-87
2022/08/02 10:30:29;;;;;;;;;;;;;;;30.3;40.23828;101673.3;;;;-84
2022/08/02 10:41:23;;;;;;;;;;;;;;;30.55;39.93262;101673.4;;;;-80
2022/08/02 10:42:24;;;;;;;;;;;;;;;30.83;39.71191;101665.4;;;;-83
2022/08/02 10:55:22;;;;;;;;;;;;;;;31.56;39.04688;101669.4;;;;-82
2022/08/02 11:53:58;;;;;;;;;;;;;;;31.42;36.4043;101660.2;;;;-75
2022/08/02 11:59:10;;;;;;;;;;;;;;;31.47;36.52539;101650.7;;;;-73
2022/08/02 12:00:21;;;;;;;;;;;;;;;31.73;36.46387;101652.2;;;;-73
2022/08/02 12:03:14;;;;;;;;;;;;;;;31.51;37.11621;101651.3;;;;-73
2022/08/02 12:04:22;;;;;;;4.5;2;;;;;;;;;;;;;-74
2022/08/02 12:08:14;;;;;;;;;;;;;;;31.66;37.30469;101648.8;;;;-73
2022/08/02 12:13:14;;;;;;;;;;;;;;;31.7;37.2959;101646.1;;;;-74
2022/08/02 12:23:16;;;;;;;;;;;;;;;31.24;37.44629;101650.9;;;;-71
2022/08/02 12:28:21;;;;;;;;;;;;;;;31.41;37.77734;101649.4;;;;-73
2022/08/02 12:33:14;;;;;;;;;;;;;;;31.49;37.87793;101649.1;;;;-72
2022/08/02 12:34:25;;;;;;;6;2.5;;;;;;;;;;;;;-75
2022/08/02 12:38:15;;;;;;;;;;;;;;;31.47;38.00586;101653.6;;;;-74
2022/08/02 12:43:20;;;;;;;;;;;;;;;31.49;38.13672;101652.3;;;;-73
2022/08/02 12:48:14;;;;;;;;;;;;;;;31.5;38.14844;101659.5;;;;-74
2022/08/02 12:53:15;;;;;;;;;;;;;;;31.43;38.06152;101656.7;;;;-71
2022/08/02 12:58:14;;;;;;;;;;;;;;;31.43;38.50781;101657.9;;;;-73
2022/08/02 13:03:15;;;;;;;;;;;;;;;31.51;38.64355;101659.3;;;;-72
2022/08/02 13:04:30;;;;;;;5.2;2.1;;;;;;;;;;;;;-70
2022/08/02 13:08:14;;;;;;;;;;;;;;;31.54;38.375;101660;;;;-74
2022/08/02 13:13:15;;;;;;;;;;;;;;;31.55;38.45898;101652.8;;;;-73
2022/08/02 13:18:14;;;;;;;;;;;;;;;31.59;38.5791;101655.2;;;;-73
2022/08/02 13:23:14;;;;;;;;;;;;;;;31.7;38.2959;101635.7;;;;-73
2022/08/02 13:28:14;;;;;;;;;;;;;;;31.84;38.41309;101635.9;;;;-72
2022/08/02 13:33:14;;;;;;;;;;;;;;;32.03;38.45215;101638.6;;;;-73
2022/08/02 13:34:35;;;;;;;5;1.6;;;;;;;;;;;;;-72
2022/08/02 13:38:14;;;;;;;;;;;;;;;32.28;38.80273;101640;;;;-72
2022/08/02 13:43:14;;;;;;;;;;;;;;;32.49;38.34961;101636.9;;;;-69
2022/08/02 13:48:14;;;;;;;;;;;;;;;32.63;38.33789;101628.5;;;;-70
2022/08/02 13:53:14;;;;;;;;;;;;;;;32.67;38.25977;101627.7;;;;-70
2022/08/02 13:58:14;;;;;;;;;;;;;;;32.72;38.58105;101623.9;;;;-69
2022/08/02 14:03:14;;;;;;;;;;;;;;;32.83;38.51953;101624;;;;-70
2022/08/02 14:04:40;;;;;;;4.7;1.6;;;;;;;;;;;;;-70
2022/08/02 14:08:14;;;;;;;;;;;;;;;32.92;38.4209;101622.6;;;;-72
2022/08/02 14:13:14;;;;;;;;;;;;;;;32.91;38.43262;101609.8;;;;-69
2022/08/02 14:18:14;;;;;;;;;;;;;;;32.76;38.51367;101606.2;;;;-70
2022/08/02 14:23:14;;;;;;;;;;;;;;;32.63;38.77441;101605;;;;-69
2022/08/02 14:28:14;;;;;;;;;;;;;;;32.57;38.88574;101597;;;;-70
2022/08/02 14:33:14;;;;;;;;;;;;;;;32.49;39.31445;101591.4;;;;-71
2022/08/02 14:34:45;;;;;;;5.9;1.5;;;;;;;;;;;;;-68
2022/08/02 14:38:16;;;;;;;;;;;;;;;32.42;38.99121;101593.8;;;;-69
2022/08/02 14:44:02;;;;;;;;;;;;;;;32.32;39.14648;101577.7;;;;-70
2022/08/02 14:48:14;;;;;;;;;;;;;;;32.25;39.09473;101571.5;;;;-71
2022/08/02 14:53:14;;;;;;;;;;;;;;;32.22;39.30273;101574.5;;;;-69
2022/08/02 14:58:14;;;;;;;;;;;;;;;32.17;39.33398;101577.2;;;;-69
2022/08/02 15:03:14;;;;;;;;;;;;;;;32.14;39.54395;101572.4;;;;-73
2022/08/02 15:04:50;;;;;;;4.9;1.4;;;;;;;;;;;;;-73
2022/08/02 15:08:14;;;;;;;;;;;;;;;32.07;39.70215;101588.4;;;;-74
2022/08/02 15:13:14;;;;;;;;;;;;;;;31.92;39.60645;101584.7;;;;-73
2022/08/02 15:18:14;;;;;;;;;;;;;;;31.79;39.9248;101588.3;;;;-74
2022/08/02 15:23:14;;;;;;;;;;;;;;;31.69;39.84473;101581.1;;;;-74
2022/08/02 15:28:14;;;;;;;;;;;;;;;31.58;40.10645;101561.3;;;;-73
2022/08/02 15:33:14;;;;;;;;;;;;;;;31.41;40.11328;101560.5;;;;-77
2022/08/02 15:34:55;;;;;;;8.2;1.2;;;;;;;;;;;;;-74
2022/08/02 15:38:14;;;;;;;;;;;;;;;31.25;40.40527;101565.9;;;;-73
2022/08/02 15:43:14;;;;;;;;;;;;;;;31.15;40.5957;101572.2;;;;-74
2022/08/02 15:48:15;;;;;;;;;;;;;;;31.07;40.68164;101562.3;;;;-74
2022/08/02 15:53:14;;;;;;;;;;;;;;;30.99;40.80371;101568.3;;;;-73
2022/08/02 15:58:14;;;;;;;;;;;;;;;30.84;40.93164;101553.7;;;;-74
2022/08/02 16:03:14;;;;;;;;;;;;;;;30.74;41.05078;101576.8;;;;-72
2022/08/02 16:05:00;;;;;;;10;1.3;;;;;;;;;;;;;-73
2022/08/02 16:08:16;;;;;;;;;;;;;;;30.62;41.23828;101567.4;;;;-73
2022/08/02 16:18:14;;;;;;;;;;;;;;;30.34;41.63574;101566.8;;;;-75
2022/08/02 16:23:14;;;;;;;;;;;;;;;30.22;41.76367;101560.4;;;;-74
2022/08/02 16:28:14;;;;;;;;;;;;;;;30.13;41.89746;101560.6;;;;-74
2022/08/02 16:33:14;;;;;;;;;;;;;;;30.01;42.08496;101556.2;;;;-73
2022/08/02 16:35:05;;;;;;;11.9;1.3;;;;;;;;;;;;;-74
2022/08/02 16:38:14;;;;;;;;;;;;;;;29.82;42.34766;101552;;;;-74
2022/08/02 16:43:14;;;;;;;;;;;;;;;29.69;42.53418;101544.5;;;;-75
2022/08/02 16:48:14;;;;;;;;;;;;;;;29.5;42.7959;101548.7;;;;-74
2022/08/02 16:53:14;;;;;;;;;;;;;;;29.4;42.99805;101541.6;;;;-74
2022/08/02 16:58:14;;;;;;;;;;;;;;;29.33;43.10645;101542.3;;;;-74
2022/08/02 17:03:14;;;;;;;;;;;;;;;29.25;43.23926;101534.3;;;;-74
2022/08/02 17:05:10;;;;;;;7.6;1;;;;;;;;;;;;;-74
2022/08/02 17:08:14;;;;;;;;;;;;;;;29.1;43.54004;101538.8;;;;-74
2022/08/02 17:13:14;;;;;;;;;;;;;;;28.91;43.8252;101532;;;;-74
2022/08/02 17:18:14;;;;;;;;;;;;;;;28.75;44.13574;101538.1;;;;-73
2022/08/02 17:23:14;;;;;;;;;;;;;;;28.59;44.45898;101545;;;;-75
2022/08/02 17:28:16;;;;;;;;;;;;;;;28.45;44.78223;101553.9;;;;-75
2022/08/02 17:33:14;;;;;;;;;;;;;;;28.28;45.1377;101547.7;;;;-74
2022/08/02 17:35:14;;;;;;;6.7;1.2;;;;;;;;;;;;;-73
2022/08/02 17:38:14;;;;;;;;;;;;;;;28.14;45.42676;101554.5;;;;-74
2022/08/02 17:43:16;;;;;;;;;;;;;;;28.02;45.60059;101558.4;;;;-75
2022/08/02 17:48:14;;;;;;;;;;;;;;;27.88;45.73828;101556;;;;-75
2022/08/02 17:53:14;;;;;;;;;;;;;;;27.74;45.98047;101549.8;;;;-74
2022/08/02 17:58:14;;;;;;;;;;;;;;;27.6;46.13965;101542.1;;;;-75
2022/08/02 18:03:14;;;;;;;;;;;;;;;27.48;46.2666;101542.8;;;;-75
2022/08/02 18:05:18;;;;;;;7.9;1.1;;;;;;;;;;;;;-74
2022/08/02 18:08:14;;;;;;;;;;;;;;;27.37;46.29004;101552.9;;;;-74
2022/08/02 18:13:14;;;;;;;;;;;;;;;27.23;46.05469;101551.8;;;;-74
2022/08/02 18:18:15;;;;;;;;;;;;;;;27.13;46.02148;101557.3;;;;-75
2022/08/02 18:23:14;;;;;;;;;;;;;;;27.01;46.21777;101549.9;;;;-73
2022/08/02 18:28:14;;;;;;;;;;;;;;;26.88;46.12305;101549.6;;;;-74
2022/08/02 18:33:14;;;;;;;;;;;;;;;26.73;46.42188;101550.8;;;;-75
2022/08/02 18:35:22;;;;;;;3.7;1.2;;;;;;;;;;;;;-73
2022/08/02 18:38:14;;;;;;;;;;;;;;;26.57;46.41699;101552.8;;;;-73
2022/08/02 18:43:14;;;;;;;;;;;;;;;26.37;47.18555;101558;;;;-78
2022/08/02 18:48:14;;;;;;;;;;;;;;;26.13;46.99707;101549;;;;-77
2022/08/02 18:53:15;;;;;;;;;;;;;;;25.92;47.48535;101545.1;;;;-77
2022/08/02 18:58:15;;;;;;;;;;;;;;;25.7;47.80859;101541.9;;;;-78
2022/08/02 19:03:14;;;;;;;;;;;;;;;25.5;47.96094;101537.1;;;;-76
2022/08/02 19:05:26;;;;;;;4.9;1.2;;;;;;;;;;;;;-77
2022/08/02 19:08:14;;;;;;;;;;;;;;;25.27;48.58203;101526;;;;-76
2022/08/02 19:13:14;;;;;;;;;;;;;;;25.1;48.41406;101518.1;;;;-76
2022/08/02 19:18:14;;;;;;;;;;;;;;;24.92;48.05957;101521.7;;;;-77
2022/08/02 19:23:14;;;;;;;;;;;;;;;24.72;49.2959;101517;;;;-78
2022/08/02 19:28:14;;;;;;;;;;;;;;;24.5;49.07617;101522.6;;;;-78
2022/08/02 19:33:14;;;;;;;;;;;;;;;24.29;49.34082;101525.6;;;;-77
2022/08/02 19:35:30;;;;;;;6;1.2;;;;;;;;;;;;;-78
2022/08/02 19:38:15;;;;;;;;;;;;;;;24.08;49.89453;101531.1;;;;-77
2022/08/02 19:43:14;;;;;;;;;;;;;;;23.88;50.61914;101533.1;;;;-77
2022/08/02 19:48:14;;;;;;;;;;;;;;;23.69;50.8623;101534.8;;;;-77
2022/08/02 19:53:15;;;;;;;;;;;;;;;23.49;51.79297;101540.5;;;;-77
2022/08/02 19:58:14;;;;;;;;;;;;;;;23.32;52.54297;101540.5;;;;-77
2022/08/02 20:03:14;;;;;;;;;;;;;;;23.17;52.6748;101547;;;;-76
2022/08/02 20:05:33;;;;;;;5.4;1.2;;;;;;;;;;;;;-77
2022/08/02 20:08:14;;;;;;;;;;;;;;;23.03;53.22168;101543.3;;;;-77
2022/08/02 20:13:15;;;;;;;;;;;;;;;22.9;53.19336;101549.5;;;;-76
2022/08/02 20:18:14;;;;;;;;;;;;;;;22.76;53.40723;101551.1;;;;-77
2022/08/02 20:23:17;;;;;;;;;;;;;;;22.63;53.74707;101549.5;;;;-76
2022/08/02 20:28:14;;;;;;;;;;;;;;;22.51;54.04199;101546.9;;;;-74
2022/08/02 20:33:14;;;;;;;;;;;;;;;22.35;54.27344;101541.6;;;;-76
2022/08/02 20:35:37;;;;;;;4.8;1.2;;;;;;;;;;;;;-77
2022/08/02 20:38:14;;;;;;;;;;;;;;;22.25;54.75488;101543.3;;;;-75
2022/08/02 20:43:14;;;;;;;;;;;;;;;22.14;55.02734;101548.1;;;;-77
2022/08/02 20:48:14;;;;;;;;;;;;;;;22.04;55.29004;101550.6;;;;-75
2022/08/02 20:53:14;;;;;;;;;;;;;;;21.93;55.74512;101555.3;;;;-75
2022/08/02 20:58:14;;;;;;;;;;;;;;;21.83;55.93848;101548.5;;;;-74
2022/08/02 21:03:15;;;;;;;;;;;;;;;21.73;56.28223;101550.5;;;;-74
2022/08/02 21:05:40;;;;;;;4.9;1.2;;;;;;;;;;;;;-74
2022/08/02 21:08:15;;;;;;;;;;;;;;;21.64;56.31543;101550.9;;;;-75
2022/08/02 21:13:14;;;;;;;;;;;;;;;21.56;56.63574;101546.5;;;;-74
2022/08/02 21:18:14;;;;;;;;;;;;;;;21.47;57.11719;101541.9;;;;-74
2022/08/02 21:23:14;;;;;;;;;;;;;;;21.39;57.50586;101539.8;;;;-74
2022/08/02 21:28:14;;;;;;;;;;;;;;;21.31;57.17578;101537.3;;;;-74
2022/08/02 21:33:14;;;;;;;;;;;;;;;21.25;57.86523;101536.7;;;;-74
2022/08/02 21:35:42;;;;;;;5.3;1.2;;;;;;;;;;;;;-75
2022/08/02 21:38:14;;;;;;;;;;;;;;;21.17;57.7627;101531.2;;;;-74
2022/08/02 21:43:14;;;;;;;;;;;;;;;21.13;57.75781;101531.2;;;;-75
2022/08/02 21:48:14;;;;;;;;;;;;;;;21.05;58.55664;101531;;;;-74
2022/08/02 21:53:15;;;;;;;;;;;;;;;20.99;58.85645;101531.7;;;;-75
2022/08/02 21:58:14;;;;;;;;;;;;;;;20.93;59.95508;101534.3;;;;-75
2022/08/02 22:03:14;;;;;;;;;;;;;;;20.87;59.68555;101527.3;;;;-74
2022/08/02 22:05:45;;;;;;;5.1;1.4;;;;;;;;;;;;;-73
2022/08/02 22:08:14;;;;;;;;;;;;;;;20.82;59.90625;101525.1;;;;-75
2022/08/02 22:13:14;;;;;;;;;;;;;;;20.78;60.74316;101530.3;;;;-75
2022/08/02 22:18:14;;;;;;;;;;;;;;;20.72;61.43066;101528.4;;;;-75
2022/08/02 22:23:14;;;;;;;;;;;;;;;20.7;61.43848;101531.4;;;;-74
2022/08/02 22:28:15;;;;;;;;;;;;;;;20.67;61.43555;101537.3;;;;-73
2022/08/02 22:35:48;;;;;;;5.8;1.2;;;;;;;;;;;;;-75
2022/08/02 22:38:14;;;;;;;;;;;;;;;20.61;61.41602;101531.1;;;;-74
2022/08/02 22:43:14;;;;;;;;;;;;;;;20.55;61.95313;101527.9;;;;-74
2022/08/02 22:48:14;;;;;;;;;;;;;;;20.51;62.76758;101526;;;;-74
2022/08/02 22:53:14;;;;;;;;;;;;;;;20.48;63.35547;101521.9;;;;-74
2022/08/02 22:58:14;;;;;;;;;;;;;;;20.48;62.79785;101531.1;;;;-74
2022/08/02 23:03:14;;;;;;;;;;;;;;;20.45;63.21387;101526.1;;;;-74
2022/08/02 23:05:51;;;;;;;5;1.3;;;;;;;;;;;;;-74
2022/08/02 23:08:14;;;;;;;;;;;;;;;20.41;63.09473;101525.8;;;;-74
2022/08/02 23:13:14;;;;;;;;;;;;;;;20.38;64.0791;101525.8;;;;-75
2022/08/02 23:23:14;;;;;;;;;;;;;;;20.34;63.31348;101527.3;;;;-75
2022/08/02 23:28:14;;;;;;;;;;;;;;;20.32;63.03613;101523.5;;;;-74
2022/08/02 23:33:15;;;;;;;;;;;;;;;20.29;63.28223;101518.8;;;;-73
2022/08/02 23:35:53;;;;;;;6.6;1.4;;;;;;;;;;;;;-76
2022/08/02 23:38:14;;;;;;;;;;;;;;;20.26;63.17676;101523.6;;;;-74
2022/08/02 23:43:14;;;;;;;;;;;;;;;20.19;63.29199;101524.2;;;;-74
2022/08/02 23:48:14;;;;;;;;;;;;;;;20.17;64.12988;101530.3;;;;-74
2022/08/02 23:53:14;;;;;;;;;;;;;;;20.15;63.45508;101529.5;;;;-75
2022/08/02 23:58:14;;;;;;;;;;;;;;;20.13;63.56738;101534.9;;;;-73
